createdAt,value
2023-02-16T00:02:48.417Z,101491.47
2023-02-16T00:06:19.313Z,101488.20
2023-02-16T00:09:49.092Z,101488.79
2023-02-16T00:13:47.560Z,101498.27
2023-02-16T00:17:14.953Z,101494.16
2023-02-16T00:20:42.560Z,101490.64
2023-02-16T00:24:10.504Z,101492.63
2023-02-16T00:27:38.606Z,101489.40
2023-02-16T00:31:06.357Z,101484.09
2023-02-16T00:34:45.923Z,101483.19
2023-02-16T00:38:16.072Z,101478.45
2023-02-16T00:41:52.381Z,101476.31
2023-02-16T00:45:25.842Z,101471.67
2023-02-16T00:48:53.051Z,101472.37
2023-02-16T00:52:36.650Z,101473.42
2023-02-16T00:56:04.046Z,101471.23
2023-02-16T00:59:31.577Z,101466.33
2023-02-16T01:03:01.943Z,101466.64
2023-02-16T01:06:46.716Z,101462.58
2023-02-16T01:10:32.315Z,101449.11
2023-02-16T01:13:59.980Z,101446.52
2023-02-16T01:17:27.518Z,101443.71
2023-02-16T01:20:54.774Z,101441.91
2023-02-16T01:24:22.008Z,101436.20
2023-02-16T01:27:51.452Z,101434.58
2023-02-16T01:31:19.638Z,101429.06
2023-02-16T01:34:46.837Z,101424.33
2023-02-16T01:38:19.670Z,101427.95
2023-02-16T01:42:03.364Z,101425.42
2023-02-16T01:45:35.139Z,101426.68
2023-02-16T01:49:02.264Z,101426.92
2023-02-16T01:52:35.855Z,101422.49
2023-02-16T01:56:06.142Z,101418.89
2023-02-16T01:59:41.956Z,101414.36
2023-02-16T02:03:34.250Z,101409.98
2023-02-16T02:07:01.562Z,101409.91
2023-02-16T02:10:36.002Z,101402.48
2023-02-16T02:14:08.557Z,101400.37
2023-02-16T02:17:37.469Z,101399.38
2023-02-16T02:21:45.491Z,101397.42
2023-02-16T02:25:58.775Z,101397.09
2023-02-16T02:29:44.281Z,101400.30
2023-02-16T02:33:27.796Z,101396.83
2023-02-16T02:37:10.174Z,101402.38
2023-02-16T02:40:50.910Z,101400.37
2023-02-16T02:44:22.398Z,101396.23
2023-02-16T02:47:51.048Z,101400.86
2023-02-16T02:51:30.811Z,101397.89
2023-02-16T02:55:20.718Z,101397.80
2023-02-16T02:59:12.970Z,101395.52
2023-02-16T03:02:44.397Z,101395.46
2023-02-16T03:06:16.498Z,101387.42
2023-02-16T03:09:44.020Z,101386.54
2023-02-16T03:13:18.503Z,101387.52
2023-02-16T03:17:06.182Z,101389.98
2023-02-16T03:20:54.240Z,101386.13
2023-02-16T03:24:45.643Z,101383.86
2023-02-16T03:28:32.009Z,101387.66
2023-02-16T03:32:00.335Z,101392.80
2023-02-16T03:35:29.835Z,101398.88
2023-02-16T03:38:56.144Z,101402.59
2023-02-16T03:42:25.340Z,101403.39
2023-02-16T03:45:52.945Z,101402.39
2023-02-16T03:49:20.951Z,101392.24
2023-02-16T03:52:48.528Z,101389.20
2023-02-16T03:56:15.945Z,101389.95
2023-02-16T03:59:45.978Z,101380.47
2023-02-16T04:03:13.807Z,101384.95
2023-02-16T04:06:51.057Z,101389.25
2023-02-16T04:10:19.066Z,101391.13
2023-02-16T04:13:46.322Z,101381.86
2023-02-16T04:17:13.796Z,101381.83
2023-02-16T04:20:41.074Z,101379.42
2023-02-16T04:24:09.378Z,101371.27
2023-02-16T04:27:37.296Z,101372.83
2023-02-16T04:31:04.881Z,101367.52
2023-02-16T04:34:32.217Z,101367.66
2023-02-16T04:37:59.609Z,101363.61
2023-02-16T04:41:27.475Z,101361.20
2023-02-16T04:44:57.308Z,101356.80
2023-02-16T04:48:34.723Z,101364.79
2023-02-16T04:52:12.469Z,101360.48
2023-02-16T04:55:39.674Z,101351.81
2023-02-16T04:59:06.918Z,101353.11
2023-02-16T05:02:37.082Z,101350.16
2023-02-16T05:06:07.984Z,101349.04
2023-02-16T05:09:35.071Z,101351.47
2023-02-16T05:13:20.143Z,101356.11
2023-02-16T05:16:47.920Z,101358.70
2023-02-16T05:20:16.092Z,101359.93
2023-02-16T05:23:43.167Z,101358.13
2023-02-16T05:27:13.245Z,101357.10
2023-02-16T05:30:40.368Z,101362.75
2023-02-16T05:34:07.702Z,101357.20
2023-02-16T05:37:37.442Z,101356.02
2023-02-16T05:41:05.045Z,101362.99
2023-02-16T05:44:32.577Z,101363.63
2023-02-16T05:47:59.938Z,101364.71
2023-02-16T05:51:30.698Z,101362.54
2023-02-16T05:54:57.847Z,101368.59
2023-02-16T05:58:25.015Z,101367.57
2023-02-16T06:01:52.739Z,101370.06
2023-02-16T06:05:20.473Z,101373.35
2023-02-16T06:08:47.705Z,101366.55
2023-02-16T06:12:15.128Z,101362.05
2023-02-16T06:15:42.388Z,101367.80
2023-02-16T06:19:10.564Z,101367.54
2023-02-16T06:22:37.888Z,101371.09
2023-02-16T06:26:05.399Z,101371.20
2023-02-16T06:29:39.962Z,101367.62
2023-02-16T06:33:07.822Z,101371.76
2023-02-16T06:36:36.214Z,101376.61
2023-02-16T06:40:03.631Z,101380.65
2023-02-16T06:43:31.051Z,101378.52
2023-02-16T06:46:58.528Z,101374.54
2023-02-16T06:50:25.873Z,101369.59
2023-02-16T06:53:53.068Z,101362.33
2023-02-16T06:57:20.267Z,101359.91
2023-02-16T07:00:51.499Z,101354.33
2023-02-16T07:04:21.419Z,101348.02
2023-02-16T07:08:09.058Z,101339.21
2023-02-16T07:11:36.631Z,101336.61
2023-02-16T07:15:04.364Z,101333.02
2023-02-16T07:18:32.097Z,101326.95
2023-02-16T07:21:59.191Z,101338.40
2023-02-16T07:25:26.495Z,101335.95
2023-02-16T07:28:54.197Z,101330.19
2023-02-16T07:32:24.539Z,101327.66
2023-02-16T07:35:51.816Z,101329.40
2023-02-16T07:39:19.850Z,101332.77
2023-02-16T07:42:47.006Z,101334.29
2023-02-16T07:46:14.557Z,101328.06
2023-02-16T07:49:42.478Z,101331.81
2023-02-16T07:53:12.535Z,101334.10
2023-02-16T07:56:41.150Z,101332.20
2023-02-16T08:00:12.469Z,101333.13
2023-02-16T08:03:40.547Z,101333.90
2023-02-16T08:07:08.111Z,101326.24
2023-02-16T08:10:35.488Z,101320.63
2023-02-16T08:14:03.037Z,101322.94
2023-02-16T08:17:40.536Z,101324.44
2023-02-16T08:21:15.002Z,101323.45
2023-02-16T08:24:42.840Z,101326.41
2023-02-16T08:28:10.315Z,101330.14
2023-02-16T08:31:41.808Z,101335.56
2023-02-16T08:35:10.690Z,101340.86
2023-02-16T08:38:38.184Z,101338.55
2023-02-16T08:42:05.840Z,101339.27
2023-02-16T08:45:33.213Z,101339.58
2023-02-16T08:49:01.634Z,101332.08
2023-02-16T08:52:29.136Z,101330.42
2023-02-16T08:55:57.731Z,101335.41
2023-02-16T08:59:28.490Z,101340.36
2023-02-16T09:02:59.608Z,101339.23
2023-02-16T09:06:27.461Z,101337.73
2023-02-16T09:10:04.452Z,101339.56
2023-02-16T09:13:31.553Z,101344.05
2023-02-16T09:16:58.723Z,101355.13
2023-02-16T09:20:27.439Z,101354.68
2023-02-16T09:23:57.777Z,101350.52
2023-02-16T09:27:24.875Z,101353.98
2023-02-16T09:30:52.098Z,101358.96
2023-02-16T09:34:21.190Z,101359.13
2023-02-16T09:37:49.947Z,101358.23
2023-02-16T09:41:28.311Z,101354.43
2023-02-16T09:45:03.785Z,101348.50
2023-02-16T09:48:39.427Z,101346.25
2023-02-16T09:52:22.434Z,101347.54
2023-02-16T09:56:04.215Z,101346.39
2023-02-16T09:59:45.307Z,101346.05
2023-02-16T10:03:37.397Z,101341.06
2023-02-16T10:07:23.567Z,101329.67
2023-02-16T10:11:02.717Z,101326.55
2023-02-16T10:14:34.701Z,101330.48
2023-02-16T10:18:07.476Z,101329.00
2023-02-16T10:21:35.162Z,101329.39
2023-02-16T10:25:07.450Z,101329.59
2023-02-16T10:28:43.549Z,101327.11
2023-02-16T10:32:21.274Z,101322.65
2023-02-16T10:35:50.340Z,101320.06
2023-02-16T10:39:28.723Z,101317.27
2023-02-16T10:43:02.704Z,101315.87
2023-02-16T10:46:37.763Z,101315.31
2023-02-16T10:50:07.208Z,101310.05
2023-02-16T10:53:42.102Z,101314.01
2023-02-16T10:57:17.054Z,101313.42
2023-02-16T11:00:53.916Z,101302.42
2023-02-16T11:04:35.885Z,101297.96
2023-02-16T11:08:10.990Z,101293.40
2023-02-16T11:11:43.086Z,101292.98
2023-02-16T11:15:27.641Z,101289.11
2023-02-16T11:19:02.893Z,101284.48
2023-02-16T11:22:34.665Z,101280.48
2023-02-16T11:26:05.969Z,101275.42
2023-02-16T11:29:34.396Z,101268.65
2023-02-16T11:33:04.631Z,101264.58
2023-02-16T11:36:37.452Z,101266.63
2023-02-16T11:40:09.405Z,101272.04
2023-02-16T11:43:39.718Z,101273.54
2023-02-16T11:47:10.089Z,101273.39
2023-02-16T11:50:39.900Z,101266.42
2023-02-16T11:54:07.774Z,101268.58
2023-02-16T11:57:37.458Z,101264.98
2023-02-16T12:01:18.114Z,101268.17
2023-02-16T12:04:57.843Z,101262.55
2023-02-16T12:08:30.224Z,101264.23
2023-02-16T12:12:15.590Z,101263.29
2023-02-16T12:15:51.810Z,101254.56
2023-02-16T12:19:32.904Z,101250.41
2023-02-16T12:23:05.943Z,101243.33
2023-02-16T12:26:48.810Z,101237.93
2023-02-16T12:30:29.824Z,101230.42
2023-02-16T12:34:07.489Z,101233.87
2023-02-16T12:37:45.883Z,101226.86
2023-02-16T12:41:25.962Z,101223.02
2023-02-16T12:44:56.002Z,101224.36
2023-02-16T12:48:37.304Z,101221.99
2023-02-16T12:52:08.633Z,101218.58
2023-02-16T12:55:44.137Z,101218.91
2023-02-16T12:59:21.526Z,101216.66
2023-02-16T13:02:53.634Z,101218.64
2023-02-16T13:06:29.942Z,101212.13
2023-02-16T13:10:05.879Z,101208.50
2023-02-16T13:13:36.716Z,101204.02
2023-02-16T13:17:10.408Z,101200.79
2023-02-16T13:20:42.252Z,101197.73
2023-02-16T13:24:17.735Z,101190.60
2023-02-16T13:27:53.554Z,101187.80
2023-02-16T13:31:33.752Z,101183.41
2023-02-16T13:35:18.047Z,101178.30
2023-02-16T13:39:29.961Z,101170.36
2023-02-16T13:43:21.337Z,101167.55
2023-02-16T13:46:52.600Z,101165.34
2023-02-16T13:50:32.790Z,101166.08
2023-02-16T13:54:02.969Z,101166.73
2023-02-16T13:58:02.884Z,101165.47
2023-02-16T14:01:44.803Z,101157.60
2023-02-16T14:05:23.731Z,101153.71
2023-02-16T14:09:29.063Z,101150.83
2023-02-16T14:12:56.232Z,101152.31
2023-02-16T14:16:46.070Z,101157.58
2023-02-16T14:20:30.121Z,101156.73
2023-02-16T14:24:03.359Z,101160.73
2023-02-16T14:27:49.918Z,101155.32
2023-02-16T14:31:22.903Z,101158.92
2023-02-16T14:34:58.463Z,101158.54
2023-02-16T14:38:29.652Z,101158.35
2023-02-16T14:42:07.426Z,101159.27
2023-02-16T14:45:56.609Z,101162.23
2023-02-16T14:50:15.412Z,101161.40
2023-02-16T14:54:19.268Z,101158.27
2023-02-16T14:57:53.859Z,101152.11
2023-02-16T15:01:23.981Z,101146.77
2023-02-16T15:04:51.305Z,101145.45
2023-02-16T15:08:22.568Z,101146.70
2023-02-16T15:12:14.335Z,101143.66
2023-02-16T15:15:48.648Z,101143.63
2023-02-16T15:19:25.497Z,101141.23
2023-02-16T15:22:54.649Z,101136.23
2023-02-16T15:26:24.517Z,101136.31
2023-02-16T15:30:05.994Z,101139.69
2023-02-16T15:33:37.354Z,101136.98
2023-02-16T15:37:20.237Z,101137.92
2023-02-16T15:40:47.564Z,101140.53
2023-02-16T15:44:34.320Z,101147.08
2023-02-16T15:48:22.450Z,101144.11
2023-02-16T15:51:50.396Z,101147.21
2023-02-16T15:55:18.194Z,101143.80
2023-02-16T15:58:45.854Z,101136.16
2023-02-16T16:02:17.566Z,101139.30
2023-02-16T16:05:54.308Z,101138.38
2023-02-16T16:09:26.717Z,101133.78
2023-02-16T16:12:57.994Z,101136.15
2023-02-16T16:16:25.220Z,101132.91
2023-02-16T16:19:52.732Z,101138.41
2023-02-16T16:23:28.461Z,101135.70
2023-02-16T16:26:58.111Z,101140.41
2023-02-16T16:30:33.702Z,101146.39
2023-02-16T16:34:02.928Z,101148.36
2023-02-16T16:37:32.514Z,101149.90
2023-02-16T16:40:59.063Z,101147.91
2023-02-16T16:44:36.157Z,101152.34
2023-02-16T16:48:10.657Z,101147.95
2023-02-16T16:51:43.034Z,101139.98
2023-02-16T16:55:26.324Z,101141.05
2023-02-16T16:58:54.661Z,101141.04
2023-02-16T17:02:21.805Z,101135.65
2023-02-16T17:05:49.444Z,101131.41
2023-02-16T17:09:16.948Z,101128.64
2023-02-16T17:12:44.444Z,101131.56
2023-02-16T17:16:18.140Z,101134.52
2023-02-16T17:19:45.401Z,101135.87
2023-02-16T17:23:15.246Z,101143.39
2023-02-16T17:26:40.813Z,101141.64
2023-02-16T17:30:11.260Z,101143.68
2023-02-16T17:33:38.521Z,101148.63
2023-02-16T17:37:08.477Z,101145.86
2023-02-16T17:40:35.999Z,101143.34
2023-02-16T17:44:04.250Z,101135.66
2023-02-16T17:47:31.432Z,101143.61
2023-02-16T17:50:59.239Z,101142.95
2023-02-16T17:54:26.660Z,101142.52
2023-02-16T17:57:55.893Z,101137.00
2023-02-16T18:01:23.604Z,101135.67
2023-02-16T18:04:51.032Z,101140.65
2023-02-16T18:08:18.198Z,101146.02
2023-02-16T18:11:45.467Z,101148.48
2023-02-16T18:15:13.005Z,101143.39
2023-02-16T18:18:40.284Z,101143.20
2023-02-16T18:22:07.710Z,101143.94
2023-02-16T18:25:35.714Z,101143.75
2023-02-16T18:29:03.000Z,101140.09
2023-02-16T18:32:30.172Z,101144.33
2023-02-16T18:35:58.909Z,101142.84
2023-02-16T18:39:26.260Z,101140.00
2023-02-16T18:42:53.624Z,101133.69
2023-02-16T18:46:20.765Z,101129.39
2023-02-16T18:49:49.530Z,101130.86
2023-02-16T18:53:17.508Z,101132.63
2023-02-16T18:56:44.656Z,101132.79
2023-02-16T19:00:16.431Z,101130.39
2023-02-16T19:03:43.603Z,101128.14
2023-02-16T19:07:11.896Z,101128.33
2023-02-16T19:10:39.019Z,101132.55
2023-02-16T19:14:06.345Z,101130.95
2023-02-16T19:17:33.467Z,101127.80
2023-02-16T19:21:00.729Z,101127.37
2023-02-16T19:24:28.054Z,101122.52
2023-02-16T19:27:55.636Z,101130.59
2023-02-16T19:31:25.520Z,101128.91
2023-02-16T19:34:52.773Z,101129.35
2023-02-16T19:38:20.122Z,101132.57
2023-02-16T19:41:56.185Z,101130.45
2023-02-16T19:45:23.487Z,101128.96
2023-02-16T19:48:51.359Z,101127.38
2023-02-16T19:52:18.477Z,101125.44
2023-02-16T19:55:46.402Z,101124.01
2023-02-16T19:59:15.397Z,101124.30
2023-02-16T20:02:42.583Z,101118.79
2023-02-16T20:06:18.674Z,101115.14
2023-02-16T20:09:45.862Z,101116.73
2023-02-16T20:13:13.554Z,101112.58
2023-02-16T20:16:40.926Z,101115.23
2023-02-16T20:20:10.087Z,101116.02
2023-02-16T20:23:38.108Z,101115.96
2023-02-16T20:27:06.059Z,101117.70
2023-02-16T20:30:33.336Z,101120.80
2023-02-16T20:34:01.659Z,101121.19
2023-02-16T20:37:30.335Z,101115.86
2023-02-16T20:40:57.552Z,101117.67
2023-02-16T20:44:25.148Z,101118.37
2023-02-16T20:47:52.409Z,101116.00
2023-02-16T20:51:20.510Z,101122.44
2023-02-16T20:54:48.145Z,101120.35
2023-02-16T20:58:15.640Z,101121.33
2023-02-16T21:01:46.489Z,101125.23
2023-02-16T21:05:14.820Z,101128.41
2023-02-16T21:08:41.997Z,101125.44
2023-02-16T21:12:09.739Z,101124.84
2023-02-16T21:15:36.903Z,101123.91
2023-02-16T21:19:09.238Z,101120.70
2023-02-16T21:22:41.498Z,101110.42
2023-02-16T21:26:09.811Z,101110.90
2023-02-16T21:29:37.077Z,101107.04
2023-02-16T21:33:04.612Z,101099.52
2023-02-16T21:36:31.744Z,101095.73
2023-02-16T21:40:16.433Z,101090.20
2023-02-16T21:43:43.641Z,101084.11
2023-02-16T21:47:30.719Z,101077.04
2023-02-16T21:50:57.880Z,101071.14
2023-02-16T21:54:45.052Z,101070.86
2023-02-16T21:58:12.247Z,101071.63
2023-02-16T22:01:42.666Z,101070.38
2023-02-16T22:05:10.387Z,101068.27
2023-02-16T22:08:39.175Z,101068.34
2023-02-16T22:12:06.492Z,101063.17
2023-02-16T22:15:36.671Z,101058.94
2023-02-16T22:19:08.965Z,101052.94
2023-02-16T22:22:36.258Z,101051.25
2023-02-16T22:26:06.549Z,101047.54
2023-02-16T22:29:34.362Z,101046.23
2023-02-16T22:33:01.664Z,101043.59
2023-02-16T22:36:29.612Z,101044.11
2023-02-16T22:39:58.940Z,101043.80
2023-02-16T22:43:30.556Z,101038.83
2023-02-16T22:46:59.424Z,101037.31
2023-02-16T22:50:32.094Z,101030.21
2023-02-16T22:54:00.730Z,101030.66
2023-02-16T22:57:28.044Z,101027.52
2023-02-16T23:00:55.984Z,101024.05
2023-02-16T23:04:24.192Z,101021.73
2023-02-16T23:07:51.308Z,101014.93
2023-02-16T23:11:18.649Z,101016.47
2023-02-16T23:14:48.144Z,101019.11
2023-02-16T23:18:15.404Z,101024.72
2023-02-16T23:21:43.286Z,101018.48
2023-02-16T23:25:28.601Z,101023.23
2023-02-16T23:28:59.055Z,101030.83
2023-02-16T23:32:26.099Z,101029.16
2023-02-16T23:35:54.273Z,101038.52
2023-02-16T23:39:21.415Z,101035.81
2023-02-16T23:42:48.938Z,101034.69
2023-02-16T23:46:16.446Z,101038.07
2023-02-16T23:49:46.773Z,101039.20
2023-02-16T23:53:14.025Z,101032.77
2023-02-16T23:56:42.464Z,101032.23
